Time;durP1;ratioP1;P1;durP2;ratioP2;P2;SDS_P1;SDS_P2;PMS_P1;PMS_P2;Temp;Humidity;BMP_temperature;BMP_pressure;BME280_temperature;BME280_humidity;BME280_pressure;Samples;Min_cycle;Max_cycle;Signal;HPM_P1;HPM_P2
2021/08/24 00:00:28;;;;;;;5.47;3.58;;;;;;;15.59;nan;101241.38;5033457;28;20137;-84
2021/08/24 00:02:54;;;;;;;5.07;3.90;;;;;;;15.51;nan;101245.72;5034859;28;20514;-85
2021/08/24 00:05:23;;;;;;;4.30;3.40;;;;;;;15.49;nan;101247.75;5048767;28;20040;-85
2021/08/24 00:07:49;;;;;;;4.35;3.15;;;;;;;15.40;nan;101250.56;5045903;28;20053;-83
2021/08/24 00:10:15;;;;;;;4.95;3.28;;;;;;;15.39;nan;101243.56;5033080;28;20427;-83
2021/08/24 00:12:41;;;;;;;6.30;3.70;;;;;;;15.35;nan;101252.88;5034250;28;20033;-85
2021/08/24 00:15:07;;;;;;;6.38;3.50;;;;;;;15.33;nan;101244.22;5032072;28;20041;-82
2021/08/24 00:20:55;;;;;;;6.55;3.90;;;;;;;15.22;nan;101240.88;5046480;28;20035;-83
2021/08/24 00:23:23;;;;;;;4.53;3.70;;;;;;;15.28;nan;101245.56;5031095;28;20380;-82
2021/08/24 00:25:50;;;;;;;4.82;3.30;;;;;;;15.26;nan;101244.06;5051610;28;20587;-85
2021/08/24 00:28:16;;;;;;;4.35;3.33;;;;;;;15.18;nan;101244.03;5047957;28;20640;-83
2021/08/24 00:30:42;;;;;;;5.43;3.55;;;;;;;15.21;nan;101243.72;5032029;28;20033;-83
2021/08/24 00:33:09;;;;;;;6.10;3.60;;;;;;;15.11;nan;101238.53;5032169;28;20033;-83
2021/08/24 00:35:39;;;;;;;5.05;3.85;;;;;;;15.13;nan;101238.38;5055558;28;20037;-83
2021/08/24 00:38:16;;;;;;;8.02;4.13;;;;;;;15.07;nan;101245.19;5057342;28;20037;-83
2021/08/24 00:40:42;;;;;;;4.00;3.50;;;;;;;14.93;nan;101244.00;5056499;28;20502;-84
2021/08/24 00:43:11;;;;;;;4.63;3.08;;;;;;;14.91;nan;101237.16;5035574;28;20048;-84
2021/08/24 00:45:40;;;;;;;4.35;3.25;;;;;;;14.88;nan;101245.47;5056611;28;20121;-84
2021/08/24 00:48:06;;;;;;;4.38;3.70;;;;;;;14.81;nan;101240.78;5036522;28;20037;-83
2021/08/24 00:50:37;;;;;;;4.93;3.58;;;;;;;14.76;nan;101244.94;5046164;28;20075;-84
2021/08/24 00:53:14;;;;;;;5.55;3.85;;;;;;;14.75;nan;101243.25;5036346;28;20051;-84
2021/08/24 00:55:42;;;;;;;5.72;3.72;;;;;;;14.76;nan;101244.94;5032528;28;20498;-84
2021/08/24 00:58:10;;;;;;;4.82;3.70;;;;;;;14.79;nan;101242.78;5035824;28;20401;-84
2021/08/24 01:00:36;;;;;;;4.10;3.10;;;;;;;14.77;nan;101244.75;5037698;28;20048;-81
2021/08/24 01:03:11;;;;;;;4.50;4.03;;;;;;;14.83;nan;101249.47;5033447;28;20037;-83
2021/08/24 01:05:38;;;;;;;9.85;5.05;;;;;;;14.82;nan;101253.09;5055207;28;20064;-83
2021/08/24 01:08:53;;;;;;;5.60;4.13;;;;;;;14.76;nan;101247.59;5047170;28;20029;-82
2021/08/24 01:11:38;;;;;;;6.32;4.22;;;;;;;14.68;nan;101247.56;4990533;28;20065;-84
2021/08/24 01:14:15;;;;;;;6.22;4.45;;;;;;;14.68;nan;101256.38;5043493;28;20032;-83
2021/08/24 01:17:05;;;;;;;5.30;4.00;;;;;;;14.63;nan;101251.56;5035919;28;20040;-83
2021/08/24 01:20:00;;;;;;;6.53;4.55;;;;;;;14.55;nan;101240.03;5038938;28;20106;-84
2021/08/24 01:22:28;;;;;;;7.53;4.55;;;;;;;14.55;nan;101246.19;5032863;28;20048;-84
2021/08/24 01:25:01;;;;;;;10.38;4.53;;;;;;;14.53;nan;101234.00;5040345;28;20055;-84
2021/08/24 01:27:58;;;;;;;7.18;4.63;;;;;;;14.52;nan;101243.81;5063165;28;20029;-82
2021/08/24 01:30:44;;;;;;;6.53;4.45;;;;;;;14.47;nan;101243.47;5043264;28;20044;-81
2021/08/24 01:33:21;;;;;;;6.72;4.88;;;;;;;14.44;nan;101241.09;5052681;28;20034;-82
2021/08/24 01:36:11;;;;;;;5.97;4.45;;;;;;;14.43;nan;101247.44;5050714;28;20029;-82
2021/08/24 01:38:57;;;;;;;7.75;4.60;;;;;;;14.50;nan;101250.31;5060795;28;20056;-83
2021/08/24 01:42:07;;;;;;;7.30;4.97;;;;;;;14.47;nan;101250.59;5025700;28;20376;-82
2021/08/24 01:44:39;;;;;;;6.22;4.60;;;;;;;14.40;nan;101253.09;5003925;28;20045;-84
2021/08/24 01:47:38;;;;;;;8.93;5.47;;;;;;;14.38;nan;101258.56;5049879;28;20033;-83
2021/08/24 01:50:24;;;;;;;8.57;6.15;;;;;;;14.35;nan;101255.38;5046696;28;20584;-83
2021/08/24 01:52:58;;;;;;;7.72;5.20;;;;;;;14.28;nan;101254.34;5035640;28;20166;-84
2021/08/24 01:55:29;;;;;;;7.35;5.30;;;;;;;14.19;nan;101254.28;5028578;28;20041;-84
2021/08/24 01:58:00;;;;;;;11.00;5.70;;;;;;;14.18;nan;101249.13;5053349;28;20037;-83
2021/08/24 02:00:26;;;;;;;7.97;5.70;;;;;;;14.18;nan;101257.97;5033189;28;20036;-84
2021/08/24 02:02:57;;;;;;;7.97;5.40;;;;;;;14.10;nan;101247.25;5058285;28;20041;-82
2021/08/24 02:05:25;;;;;;;;;;;;;;;14.13;nan;101257.56;5022532;28;20036;-83
2021/08/24 02:07:55;;;;;;;7.78;4.78;;;;;;;14.07;nan;101260.88;5033312;28;20026;-82
2021/08/24 02:10:23;;;;;;;6.72;4.72;;;;;;;14.05;nan;101257.53;5047465;28;20033;-84
2021/08/24 02:12:51;;;;;;;6.45;4.95;;;;;;;14.10;nan;101257.91;5051946;28;20051;-83
2021/08/24 02:15:21;;;;;;;5.97;4.78;;;;;;;14.09;nan;101260.72;5057100;28;20486;-83
2021/08/24 02:17:47;;;;;;;7.75;5.10;;;;;;;14.06;nan;101261.03;5033052;28;20450;-83
2021/08/24 02:20:22;;;;;;;5.60;4.53;;;;;;;14.08;nan;101262.53;5031773;28;20534;-83
2021/08/24 02:22:53;;;;;;;4.82;4.13;;;;;;;14.10;nan;101268.53;5029664;28;20636;-84
2021/08/24 02:25:25;;;;;;;5.88;4.82;;;;;;;14.07;nan;101260.88;5032543;28;20029;-83
2021/08/24 02:28:07;;;;;;;6.57;4.93;;;;;;;14.03;nan;101263.00;5021725;28;20030;-82
2021/08/24 02:30:38;;;;;;;6.20;4.90;;;;;;;13.98;nan;101259.97;5023547;28;20033;-83
2021/08/24 02:33:04;;;;;;;;;;;;;;;13.94;nan;101257.78;5035513;28;20482;-83
2021/08/24 02:35:36;;;;;;;7.25;5.22;;;;;;;13.90;nan;101259.94;5042718;28;19940;-83
2021/08/24 02:38:07;;;;;;;7.30;5.25;;;;;;;13.86;nan;101255.91;5048062;28;20051;-83
2021/08/24 02:40:42;;;;;;;7.90;4.95;;;;;;;13.81;nan;101264.34;5027686;28;20029;-83
2021/08/24 02:43:25;;;;;;;6.88;5.07;;;;;;;13.76;nan;101261.31;5018198;28;20064;-84
2021/08/24 02:45:54;;;;;;;5.57;4.65;;;;;;;13.70;nan;101258.44;5048639;28;20059;-82
2021/08/24 02:48:21;;;;;;;6.25;5.10;;;;;;;13.66;nan;101254.41;5027763;28;20063;-84
2021/08/24 02:50:48;;;;;;;7.43;5.80;;;;;;;13.70;nan;101261.94;5042907;28;20033;-82
2021/08/24 02:53:15;;;;;;;9.88;6.88;;;;;;;13.71;nan;101255.66;5054101;28;20025;-84
2021/08/24 02:55:40;;;;;;;7.28;5.80;;;;;;;13.71;nan;101246.84;5035533;28;20040;-82
2021/08/24 02:58:05;;;;;;;7.82;5.80;;;;;;;13.73;nan;101263.44;5062667;28;20494;-83
2021/08/24 03:00:31;;;;;;;9.40;7.07;;;;;;;13.79;nan;101255.69;5035052;28;20037;-82
2021/08/24 03:02:56;;;;;;;8.43;7.18;;;;;;;13.80;nan;101252.06;5041268;28;20037;-82
2021/08/24 03:05:21;;;;;;;10.32;8.95;;;;;;;13.92;nan;101265.06;5022108;28;20025;-82
2021/08/24 03:07:47;;;;;;;9.82;8.25;;;;;;;13.83;nan;101255.41;5049846;28;20060;-83
2021/08/24 03:10:17;;;;;;;9.05;7.40;;;;;;;13.77;nan;101262.97;5051457;28;20029;-83
2021/08/24 03:13:14;;;;;;;8.85;7.20;;;;;;;13.80;nan;101262.69;5031337;28;20033;-82
2021/08/24 03:15:45;;;;;;;9.85;7.78;;;;;;;13.80;nan;101268.00;5053604;28;20033;-82
2021/08/24 03:18:17;;;;;;;14.10;10.82;;;;;;;13.93;nan;101264.09;5033339;28;20044;-83
2021/08/24 03:20:46;;;;;;;11.48;8.35;;;;;;;13.85;nan;101261.38;5041768;28;20056;-82
2021/08/24 03:23:14;;;;;;;12.75;9.90;;;;;;;13.85;nan;101270.22;5030800;28;20099;-82
2021/08/24 03:25:46;;;;;;;12.23;9.02;;;;;;;13.70;nan;101275.22;5033893;28;20108;-82
2021/08/24 03:28:16;;;;;;;13.98;9.10;;;;;;;13.66;nan;101265.03;5053782;28;20025;-82
2021/08/24 03:30:42;;;;;;;9.07;7.65;;;;;;;13.56;nan;101265.13;5022107;28;20039;-82
2021/08/24 03:33:08;;;;;;;9.68;7.85;;;;;;;13.51;nan;101259.44;5054614;28;20506;-82
2021/08/24 03:35:34;;;;;;;10.25;8.48;;;;;;;13.49;nan;101256.09;5053040;28;20033;-82
2021/08/24 03:37:59;;;;;;;11.27;8.65;;;;;;;13.48;nan;101249.97;5054764;28;20033;-82
2021/08/24 03:40:25;;;;;;;12.70;10.10;;;;;;;13.56;nan;101255.38;5054212;28;20086;-81
2021/08/24 03:42:50;;;;;;;10.55;8.50;;;;;;;13.43;nan;101259.38;5053586;28;20025;-81
2021/08/24 03:45:15;;;;;;;9.75;8.32;;;;;;;13.37;nan;101256.38;5027753;28;20041;-82
2021/08/24 03:47:40;;;;;;;10.70;8.60;;;;;;;13.41;nan;101253.38;5029356;28;20052;-81
2021/08/24 03:50:06;;;;;;;11.10;8.68;;;;;;;13.40;nan;101255.22;5056338;28;20111;-83
2021/08/24 03:52:32;;;;;;;11.82;9.65;;;;;;;13.40;nan;101263.19;5030170;28;20070;-82
2021/08/24 03:54:57;;;;;;;12.55;9.15;;;;;;;13.31;nan;101267.59;5061777;28;20032;-82
2021/08/24 03:57:23;;;;;;;8.73;7.25;;;;;;;13.23;nan;101256.00;5025830;28;20240;-83
2021/08/24 03:59:48;;;;;;;11.00;8.68;;;;;;;13.16;nan;101258.44;5026672;28;20031;-81
2021/08/24 04:02:15;;;;;;;10.98;8.13;;;;;;;13.22;nan;101271.09;5056006;28;20078;-81
2021/08/24 04:04:40;;;;;;;10.23;7.50;;;;;;;13.13;nan;101269.34;5042653;28;20449;-81
2021/08/24 04:07:05;;;;;;;9.57;7.38;;;;;;;13.10;nan;101277.63;5039381;28;20045;-82
2021/08/24 04:09:31;;;;;;;10.63;8.25;;;;;;;13.08;nan;101287.56;5031673;28;20107;-83
2021/08/24 04:11:56;;;;;;;9.18;7.35;;;;;;;13.11;nan;101279.31;5033126;28;20079;-83
2021/08/24 04:14:21;;;;;;;8.90;7.35;;;;;;;13.12;nan;101288.94;5048399;28;20025;-82
2021/08/24 04:16:48;;;;;;;12.18;8.57;;;;;;;13.11;nan;101292.59;5044650;28;20039;-83
2021/08/24 04:19:13;;;;;;;10.68;8.07;;;;;;;13.08;nan;101299.00;5031810;28;20497;-82
2021/08/24 04:21:40;;;;;;;8.32;6.97;;;;;;;13.01;nan;101289.13;5057673;28;20048;-83
2021/08/24 04:24:05;;;;;;;10.27;8.15;;;;;;;12.95;nan;101296.72;5037129;28;20033;-81
2021/08/24 04:26:31;;;;;;;8.38;7.30;;;;;;;12.96;nan;101300.19;5032036;28;20044;-83
2021/08/24 04:28:56;;;;;;;8.90;6.53;;;;;;;12.96;nan;101306.34;5052737;28;20067;-83
2021/08/24 04:31:22;;;;;;;10.57;8.20;;;;;;;12.99;nan;101301.72;5031382;28;20522;-84
2021/08/24 04:33:47;;;;;;;10.05;8.00;;;;;;;12.94;nan;101308.34;5037266;28;20037;-83
2021/08/24 04:36:12;;;;;;;9.82;7.85;;;;;;;12.85;nan;101297.75;5034506;28;20120;-84
2021/08/24 04:38:38;;;;;;;10.88;8.65;;;;;;;12.79;nan;101307.13;5060085;28;20406;-83
2021/08/24 04:41:04;;;;;;;9.15;7.13;;;;;;;12.73;nan;101305.09;5052070;28;20044;-84
2021/08/24 04:43:29;;;;;;;10.48;8.38;;;;;;;12.76;nan;101307.44;5050672;28;20037;-84
2021/08/24 04:45:55;;;;;;;9.75;7.97;;;;;;;12.72;nan;101314.00;5050863;28;20442;-84
2021/08/24 04:48:20;;;;;;;11.48;8.63;;;;;;;12.84;nan;101312.84;5032103;28;20025;-84
2021/08/24 04:50:46;;;;;;;11.82;8.68;;;;;;;12.80;nan;101310.63;5046896;28;20056;-84
2021/08/24 04:53:13;;;;;;;11.98;8.68;;;;;;;12.77;nan;101314.41;5048160;28;20029;-84
2021/08/24 04:55:39;;;;;;;12.93;8.20;;;;;;;12.65;nan;101313.75;5024150;28;20110;-83
2021/08/24 04:58:04;;;;;;;11.02;9.25;;;;;;;12.75;nan;101314.56;5033348;28;20032;-83
2021/08/24 05:00:31;;;;;;;11.50;9.45;;;;;;;12.74;nan;101317.34;5031207;28;20033;-84
2021/08/24 05:02:57;;;;;;;10.43;8.57;;;;;;;12.78;nan;101324.06;5039966;28;20033;-86
2021/08/24 05:05:23;;;;;;;9.35;7.55;;;;;;;12.80;nan;101322.09;5031611;28;20037;-84
2021/08/24 05:07:48;;;;;;;9.18;7.10;;;;;;;12.81;nan;101322.91;5051163;28;20040;-84
2021/08/24 05:10:13;;;;;;;9.73;7.53;;;;;;;12.80;nan;101324.75;5030467;28;20087;-84
2021/08/24 05:12:39;;;;;;;9.13;7.75;;;;;;;12.83;nan;101327.09;5030111;28;20123;-84
2021/08/24 05:15:05;;;;;;;9.57;7.65;;;;;;;12.84;nan;101322.63;5054251;28;20090;-84
2021/08/24 05:17:31;;;;;;;9.13;7.20;;;;;;;12.88;nan;101321.34;5046965;28;20059;-84
2021/08/24 05:19:56;;;;;;;8.43;7.32;;;;;;;12.91;nan;101327.19;5034837;28;21174;-83
2021/08/24 05:22:21;;;;;;;11.40;8.18;;;;;;;13.10;nan;101328.06;5028547;28;20041;-84
2021/08/24 05:24:47;;;;;;;8.82;7.10;;;;;;;13.16;nan;101332.81;5030737;28;20410;-84
2021/08/24 05:27:12;;;;;;;8.80;7.05;;;;;;;13.30;nan;101336.78;5035677;28;20524;-83
2021/08/24 05:29:37;;;;;;;7.90;6.85;;;;;;;13.46;nan;101331.63;5034128;28;20525;-84
2021/08/24 05:32:03;;;;;;;7.40;6.30;;;;;;;13.64;nan;101336.16;5031074;28;20421;-84
2021/08/24 05:34:29;;;;;;;8.38;5.53;;;;;;;13.76;nan;101338.41;5035432;28;20028;-84
2021/08/24 05:36:55;;;;;;;8.23;6.05;;;;;;;13.98;nan;101333.59;5031400;28;20066;-84
2021/08/24 05:39:20;;;;;;;8.32;6.13;;;;;;;14.16;nan;101344.22;5030396;28;20255;-84
2021/08/24 05:41:45;;;;;;;5.47;4.80;;;;;;;14.31;nan;101333.84;5052480;28;20518;-84
2021/08/24 05:44:11;;;;;;;7.35;5.82;;;;;;;;;;5048256;28;20034;-84
2021/08/24 05:46:36;;;;;;;7.47;5.10;;;;;;;14.75;nan;101323.97;5050970;28;20273;-83
2021/08/24 05:49:03;;;;;;;8.55;5.85;;;;;;;14.98;nan;101340.22;5030503;28;20048;-83
2021/08/24 05:51:28;;;;;;;6.75;5.00;;;;;;;15.20;nan;101340.63;5052329;28;20444;-84
2021/08/24 05:53:53;;;;;;;7.00;5.38;;;;;;;15.46;nan;101341.34;5028768;28;20040;-83
2021/08/24 05:56:22;;;;;;;6.10;5.40;;;;;;;15.45;nan;101339.69;5058508;28;20037;-85
2021/08/24 05:58:48;;;;;;;7.47;5.40;;;;;;;15.56;nan;101338.50;5053375;28;20057;-82
2021/08/24 06:01:20;;;;;;;7.00;5.20;;;;;;;15.85;nan;101334.56;5060614;28;20061;-82
2021/08/24 06:03:46;;;;;;;6.68;5.13;;;;;;;16.07;nan;101333.91;5060860;28;20048;-81
2021/08/24 06:06:25;;;;;;;5.75;4.53;;;;;;;16.41;nan;101345.38;5036567;28;20041;-82
2021/08/24 06:08:52;;;;;;;6.43;4.93;;;;;;;16.74;nan;101344.28;5050199;28;20049;-83
2021/08/24 06:11:26;;;;;;;7.28;4.22;;;;;;;16.93;nan;101339.56;5036853;28;20029;-83
2021/08/24 06:13:53;;;;;;;5.15;4.03;;;;;;;17.16;nan;101355.66;5035053;28;20038;-81
2021/08/24 06:16:19;;;;;;;5.85;4.18;;;;;;;17.35;nan;101349.03;5051568;28;20033;-82
2021/08/24 06:18:44;;;;;;;5.63;4.07;;;;;;;17.53;nan;101362.97;5029083;28;20544;-85
2021/08/24 06:21:10;;;;;;;5.40;4.10;;;;;;;17.61;nan;101357.56;5025007;28;20451;-84
2021/08/24 06:23:36;;;;;;;6.25;3.83;;;;;;;17.47;nan;101357.47;5051039;28;20037;-83
2021/08/24 06:26:01;;;;;;;4.80;4.00;;;;;;;17.67;nan;101361.38;5044739;28;20036;-83
2021/08/24 06:28:27;;;;;;;5.20;3.70;;;;;;;17.82;nan;101356.94;5034530;28;20044;-84
2021/08/24 06:30:52;;;;;;;4.70;3.63;;;;;;;17.81;nan;101354.44;5034287;28;20481;-84
2021/08/24 06:33:20;;;;;;;4.40;3.35;;;;;;;18.16;nan;101350.31;5052666;28;20040;-85
2021/08/24 06:35:45;;;;;;;4.85;2.88;;;;;;;18.46;nan;101353.84;5029470;28;20038;-84
2021/08/24 06:38:11;;;;;;;3.72;2.75;;;;;;;18.83;nan;101357.50;5025593;28;20041;-84
2021/08/24 06:40:36;;;;;;;4.22;2.80;;;;;;;18.96;nan;101350.66;5032553;28;20032;-84
2021/08/24 06:43:03;;;;;;;5.55;3.05;;;;;;;18.81;nan;101356.84;5031281;28;20092;-84
2021/08/24 06:45:31;;;;;;;4.60;2.80;;;;;;;18.77;nan;101354.72;5027957;28;20167;-83
2021/08/24 06:47:57;;;;;;;4.78;2.53;;;;;;;18.59;nan;101363.09;5031949;28;20037;-82
2021/08/24 06:50:24;;;;;;;4.10;2.65;;;;;;;18.15;nan;101353.97;5032625;28;20037;-85
2021/08/24 06:52:49;;;;;;;4.82;2.60;;;;;;;17.62;nan;101353.88;5046224;28;20029;-84
2021/08/24 06:55:15;;;;;;;3.08;2.30;;;;;;;17.31;nan;101353.09;5028022;28;20687;-84
2021/08/24 06:57:41;;;;;;;4.18;2.47;;;;;;;17.13;nan;101356.00;5032835;28;20086;-84
2021/08/24 07:00:12;;;;;;;3.42;2.00;;;;;;;17.02;nan;101359.06;5047919;28;20030;-84
2021/08/24 07:02:39;;;;;;;3.10;2.10;;;;;;;17.07;nan;101356.72;5051703;28;20029;-86
2021/08/24 07:05:05;;;;;;;3.88;2.15;;;;;;;17.15;nan;101354.81;5047557;28;20069;-85
2021/08/24 07:07:31;;;;;;;3.95;2.13;;;;;;;17.19;nan;101348.13;5028611;28;20090;-83
2021/08/24 07:09:56;;;;;;;2.72;1.90;;;;;;;17.27;nan;101349.09;5047809;28;20033;-83
2021/08/24 07:12:21;;;;;;;3.35;2.00;;;;;;;17.86;nan;101354.75;5049900;28;20045;-83
2021/08/24 07:14:47;;;;;;;2.83;1.70;;;;;;;18.61;nan;101348.50;5054867;28;20037;-84
2021/08/24 07:17:12;;;;;;;3.50;1.90;;;;;;;18.68;nan;101359.31;5032956;28;20035;-83
2021/08/24 07:19:37;;;;;;;5.65;1.83;;;;;;;18.88;nan;101348.91;5024096;28;20383;-83
2021/08/24 07:22:03;;;;;;;3.03;2.00;;;;;;;19.33;nan;101351.47;5030232;28;20427;-83
2021/08/24 07:24:28;;;;;;;3.88;1.90;;;;;;;20.04;nan;101351.59;5033213;28;20049;-85
2021/08/24 07:26:54;;;;;;;3.23;1.63;;;;;;;20.04;nan;101360.47;5048075;28;20037;-83
2021/08/24 07:29:19;;;;;;;3.05;1.70;;;;;;;20.29;nan;101352.81;5048578;28;20039;-83
2021/08/24 07:31:45;;;;;;;3.25;1.50;;;;;;;21.00;nan;101349.94;5033246;28;20044;-82
2021/08/24 07:34:11;;;;;;;3.33;1.88;;;;;;;21.13;nan;101346.47;5034427;28;20029;-84
2021/08/24 07:36:36;;;;;;;3.58;1.70;;;;;;;21.06;nan;101352.88;5053910;28;20034;-83
2021/08/24 07:39:04;;;;;;;2.85;1.77;;;;;;;21.06;nan;101351.00;5041880;28;20037;-84
2021/08/24 07:41:29;;;;;;;1.95;1.33;;;;;;;21.67;nan;101355.56;5029722;28;20040;-84
2021/08/24 07:43:55;;;;;;;2.97;1.83;;;;;;;22.22;nan;101356.22;5032412;28;20037;-84
2021/08/24 07:46:20;;;;;;;2.60;1.58;;;;;;;22.38;nan;101351.41;5028794;28;20083;-85
2021/08/24 07:48:46;;;;;;;2.80;1.38;;;;;;;22.58;nan;101354.09;5030326;28;20461;-84
2021/08/24 07:51:11;;;;;;;2.90;1.50;;;;;;;22.79;nan;101359.22;5033502;28;20039;-83
2021/08/24 07:53:37;;;;;;;2.47;1.30;;;;;;;23.01;nan;101357.09;5026788;28;20029;-84
2021/08/24 07:56:09;;;;;;;1.95;1.30;;;;;;;22.79;nan;101353.00;5030324;28;20332;-84
2021/08/24 07:58:34;;;;;;;2.70;1.60;;;;;;;22.71;nan;101348.66;5044976;28;20037;-85
2021/08/24 08:00:59;;;;;;;2.70;1.60;;;;;;;22.71;nan;101362.13;5050718;28;20048;-84
2021/08/24 08:03:25;;;;;;;2.50;1.48;;;;;;;23.36;nan;101355.88;5035470;28;20036;-85
2021/08/24 08:05:50;;;;;;;2.67;1.30;;;;;;;23.40;nan;101349.81;5034295;28;20037;-84
2021/08/24 08:08:16;;;;;;;3.95;1.88;;;;;;;23.80;nan;101344.19;5032160;28;20059;-85
2021/08/24 08:10:42;;;;;;;6.68;1.88;;;;;;;24.07;nan;101350.19;5033251;28;20025;-84
2021/08/24 08:13:08;;;;;;;4.45;1.50;;;;;;;24.06;nan;101350.44;5050487;28;20036;-85
2021/08/24 08:15:34;;;;;;;2.55;1.50;;;;;;;23.46;nan;101337.34;5035037;28;20045;-85
2021/08/24 08:18:08;;;;;;;2.58;1.60;;;;;;;24.09;nan;101344.56;5032532;28;20039;-85
2021/08/24 08:20:35;;;;;;;2.72;1.52;;;;;;;24.51;nan;101340.25;5058294;28;20035;-85
2021/08/24 08:23:03;;;;;;;2.90;1.63;;;;;;;24.23;nan;101338.00;5032066;28;20496;-85
2021/08/24 08:25:29;;;;;;;23.65;9.57;;;;;;;24.36;nan;101339.75;5032741;28;20076;-86
2021/08/24 08:27:54;;;;;;;5.63;2.85;;;;;;;24.78;nan;101343.47;5050777;28;20112;-85
2021/08/24 08:30:19;;;;;;;2.70;1.50;;;;;;;24.42;nan;101333.44;5031293;28;20577;-85
2021/08/24 08:32:45;;;;;;;2.42;1.40;;;;;;;23.89;nan;101340.16;5036548;28;20025;-86
2021/08/24 08:35:14;;;;;;;1.77;1.35;;;;;;;24.00;nan;101335.91;5032942;28;20517;-86
2021/08/24 08:37:41;;;;;;;2.78;1.50;;;;;;;24.70;nan;101337.53;5049337;28;20043;-85
2021/08/24 08:40:08;;;;;;;2.30;1.50;;;;;;;25.02;nan;101341.69;5048888;28;20110;-86
2021/08/24 08:42:43;;;;;;;3.05;1.48;;;;;;;25.34;nan;101340.72;5032429;28;20398;-85
2021/08/24 08:45:13;;;;;;;4.47;1.40;;;;;;;25.93;nan;101336.25;5025680;28;20463;-86
2021/08/24 08:47:54;;;;;;;2.83;1.20;;;;;;;26.37;nan;101335.94;5035575;28;20044;-86
2021/08/24 08:50:34;;;;;;;3.28;1.85;;;;;;;26.42;nan;101338.75;5034974;28;20387;-85
2021/08/24 08:53:02;;;;;;;2.75;1.50;;;;;;;26.56;nan;101339.34;5051716;28;20044;-85
2021/08/24 08:55:52;;;;;;;4.07;2.15;;;;;;;26.78;nan;101340.34;5053317;28;20037;-86
2021/08/24 08:58:20;;;;;;;5.28;1.65;;;;;;;27.27;nan;101338.09;5042362;28;20058;-85
2021/08/24 09:00:48;;;;;;;3.58;1.40;;;;;;;26.88;nan;101337.84;5033583;28;20040;-86
2021/08/24 09:03:22;;;;;;;2.80;1.60;;;;;;;27.32;nan;101337.38;5026495;28;20041;-86
2021/08/24 09:05:48;;;;;;;2.35;1.33;;;;;;;27.98;nan;101339.56;5041247;28;20565;-86
2021/08/24 09:08:18;;;;;;;2.70;1.60;;;;;;;28.21;nan;101350.25;5052627;28;20071;-86
2021/08/24 09:10:53;;;;;;;5.37;2.53;;;;;;;28.20;nan;101332.31;5035218;28;20065;-85
2021/08/24 09:13:24;;;;;;;5.35;2.80;;;;;;;26.42;nan;101336.84;5035858;28;20377;-86
2021/08/24 09:15:57;;;;;;;3.30;1.95;;;;;;;26.64;nan;101338.97;5057072;28;20061;-86
2021/08/24 09:18:47;;;;;;;2.25;1.50;;;;;;;26.80;nan;101334.69;5043537;28;20459;-86
2021/08/24 09:21:33;;;;;;;7.50;2.40;;;;;;;27.70;nan;101338.56;5058606;28;20029;-86
2021/08/24 09:24:07;;;;;;;2.97;1.65;;;;;;;26.54;nan;101344.19;5023950;28;20033;-85
2021/08/24 09:27:18;;;;;;;2.58;1.55;;;;;;;25.59;nan;101337.81;5052289;28;20408;-86
2021/08/24 09:29:46;;;;;;;2.92;1.67;;;;;;;25.24;nan;101338.53;4990545;28;20042;-86
2021/08/24 09:32:16;;;;;;;4.80;1.77;;;;;;;25.40;nan;101340.59;4982540;28;20034;-86
2021/08/24 09:34:44;;;;;;;2.63;1.58;;;;;;;25.10;nan;101339.72;5013171;28;20040;-86
2021/08/24 09:37:18;;;;;;;2.97;1.58;;;;;;;24.32;nan;101344.78;5034132;28;20092;-86
2021/08/24 09:40:00;;;;;;;2.97;1.60;;;;;;;24.84;nan;101335.47;5067422;28;20111;-86
2021/08/24 09:42:36;;;;;;;3.25;1.60;;;;;;;24.32;nan;101333.13;5020638;28;20045;-86
2021/08/24 09:45:25;;;;;;;3.75;1.73;;;;;;;23.96;nan;101340.13;5017774;28;20055;-85
2021/08/24 09:47:56;;;;;;;3.00;1.70;;;;;;;23.95;nan;101325.78;5051665;28;20033;-85
2021/08/24 09:50:37;;;;;;;3.00;1.70;;;;;;;23.28;nan;101332.66;5052489;28;20128;-85
2021/08/24 09:53:03;;;;;;;;;;;;;;;23.10;nan;101325.31;5050170;28;20559;-86
2021/08/24 09:55:33;;;;;;;3.75;1.60;;;;;;;22.71;nan;101331.66;5032249;28;19921;-85
2021/08/24 09:58:03;;;;;;;3.83;2.03;;;;;;;22.54;nan;101334.81;5034153;28;20036;-85
2021/08/24 10:00:37;;;;;;;3.45;2.08;;;;;;;22.73;nan;101321.47;5052796;28;20055;-85
2021/08/24 10:03:35;;;;;;;4.03;1.90;;;;;;;22.97;nan;101319.94;5029647;28;20436;-85
2021/08/24 10:06:25;;;;;;;5.97;1.80;;;;;;;23.15;nan;101327.34;5040494;28;20121;-85
2021/08/24 10:08:56;;;;;;;2.90;1.58;;;;;;;22.96;nan;101321.81;5033903;28;20419;-86
2021/08/24 10:11:32;;;;;;;3.17;1.75;;;;;;;22.90;nan;101319.94;5040184;28;20102;-86
2021/08/24 10:14:27;;;;;;;6.07;1.70;;;;;;;22.76;nan;101331.81;5054227;28;20394;-86
2021/08/24 10:16:58;;;;;;;3.13;1.60;;;;;;;22.91;nan;101335.09;5024480;28;20037;-85
2021/08/24 10:19:29;;;;;;;2.53;1.55;;;;;;;22.85;nan;101322.47;5052684;28;20437;-85
2021/08/24 10:22:05;;;;;;;;;;;;;;;22.93;nan;101330.34;5052852;28;20086;-85
2021/08/24 10:24:37;;;;;;;2.70;1.80;;;;;;;22.65;nan;101320.66;5051641;28;19916;-85
2021/08/24 10:27:20;;;;;;;3.55;1.98;;;;;;;22.76;nan;101313.78;5051296;28;20032;-86
2021/08/24 10:29:51;;;;;;;3.47;1.95;;;;;;;22.84;nan;101321.66;5026513;28;20047;-86
2021/08/24 10:32:26;;;;;;;3.20;2.00;;;;;;;22.73;nan;101322.31;5034268;28;20094;-85
2021/08/24 10:34:52;;;;;;;3.63;1.80;;;;;;;22.52;nan;101319.88;5056239;28;20037;-86
2021/08/24 10:37:23;;;;;;;3.22;2.08;;;;;;;22.36;nan;101318.50;5053998;28;20040;-85
2021/08/24 10:39:49;;;;;;;;;;;;;;;22.40;nan;101315.13;5028067;28;20038;-85
2021/08/24 10:42:28;;;;;;;3.88;2.00;;;;;;;22.50;nan;101317.41;5049325;28;20019;-84
2021/08/24 10:44:57;;;;;;;2.78;1.95;;;;;;;22.27;nan;101313.31;5044129;28;20510;-85
2021/08/24 10:47:28;;;;;;;2.88;2.00;;;;;;;21.91;nan;101310.22;5032567;28;20112;-86
2021/08/24 10:49:57;;;;;;;3.30;2.10;;;;;;;22.00;nan;101312.47;5066116;28;20128;-85
2021/08/24 10:52:43;;;;;;;3.65;2.15;;;;;;;21.82;nan;101313.09;5042178;28;20422;-86
2021/08/24 10:55:21;;;;;;;4.72;2.20;;;;;;;21.97;nan;101303.97;5033320;28;20537;-85
2021/08/24 10:58:00;;;;;;;5.38;2.15;;;;;;;21.61;nan;101310.59;5050782;28;20406;-86
2021/08/24 11:00:43;;;;;;;3.00;2.20;;;;;;;21.80;nan;101315.16;5050456;28;20044;-85
2021/08/24 11:03:29;;;;;;;3.47;2.10;;;;;;;21.97;nan;101312.88;5028562;28;20053;-85
2021/08/24 11:06:00;;;;;;;4.45;2.13;;;;;;;21.93;nan;101310.81;5040834;28;20414;-84
2021/08/24 11:08:39;;;;;;;;;;;;;;;21.82;nan;101321.16;5045996;28;20060;-84
2021/08/24 11:11:33;;;;;;;3.20;2.05;;;;;;;21.78;nan;101325.31;5028151;28;20291;-85
2021/08/24 11:14:10;;;;;;;4.57;2.40;;;;;;;21.77;nan;101322.84;5056184;28;20071;-85
2021/08/24 11:17:16;;;;;;;3.30;2.40;;;;;;;21.62;nan;101321.16;5037222;28;20033;-84
2021/08/24 11:19:57;;;;;;;4.20;2.50;;;;;;;21.63;nan;101320.13;5007329;28;20044;-85
2021/08/24 11:22:36;;;;;;;5.57;2.50;;;;;;;21.60;nan;101325.09;5046844;28;20037;-86
2021/08/24 11:25:01;;;;;;;4.10;2.40;;;;;;;21.33;nan;101324.19;5064216;28;20490;-84
2021/08/24 11:27:33;;;;;;;4.00;2.60;;;;;;;21.37;nan;101320.88;5040441;28;20040;-84
2021/08/24 11:30:27;;;;;;;5.03;2.78;;;;;;;21.54;nan;101325.91;5025940;28;20041;-84
2021/08/24 11:33:08;;;;;;;3.45;2.50;;;;;;;21.57;nan;101320.13;5034148;28;20112;-86
2021/08/24 11:35:50;;;;;;;4.93;2.60;;;;;;;22.04;nan;101329.03;5032597;28;20029;-86
2021/08/24 11:38:21;;;;;;;4.25;3.00;;;;;;;22.56;nan;101324.63;5031716;28;20040;-84
2021/08/24 11:41:05;;;;;;;5.30;3.45;;;;;;;22.45;nan;101330.66;5044087;28;20268;-85
2021/08/24 11:43:35;;;;;;;5.68;2.90;;;;;;;22.30;nan;101327.41;5039025;28;20095;-84
2021/08/24 11:46:07;;;;;;;5.47;3.05;;;;;;;22.66;nan;101318.78;5052914;28;20615;-84
2021/08/24 11:48:42;;;;;;;4.75;3.20;;;;;;;21.81;nan;101329.47;5039986;28;20397;-85
2021/08/24 11:51:32;;;;;;;5.10;3.13;;;;;;;21.86;nan;101327.00;5048910;28;20040;-86
2021/08/24 11:54:19;;;;;;;6.68;3.80;;;;;;;21.78;nan;101319.91;5053765;28;20041;-85
2021/08/24 11:57:05;;;;;;;4.57;3.40;;;;;;;21.45;nan;101321.75;5036538;28;20068;-84
2021/08/24 11:59:38;;;;;;;3.75;3.08;;;;;;;21.43;nan;101330.06;5034405;28;20049;-85
2021/08/24 12:02:04;;;;;;;5.60;3.60;;;;;;;21.78;nan;101333.38;5053275;28;20083;-84